< Cyclone 196310 1963 Season Cyclone 196312 >
Cyclone 196311 (unnamed)
General InformationTrack Information on Google Maps || ResourceGoogle EarthGE AnimationAtom FeedGeoJSON
Detalied Best Track (Time Zone = UTC)
Year Month Day Hour Lat. Long. Pressure (hPa) Wind (kt) Class Image Chart
1963 1 19 01 -12.9 124.0 1001 0 0 -- --
1963 1 20 01 -13.2 123.3 1001 0 0 -- --
1963 1 21 01 -14.5 122.7 1000 0 0 -- --
1963 1 22 01 -15.4 121.4 1000 0 0 -- --
1963 1 23 01 -16.4 120.0 998 0 0 -- --
1963 1 23 22 -17.8 119.2 998 0 0 -- --
1963 1 24 01 -17.9 119.0 998 0 0 -- --
1963 1 24 04 -18.0 118.5 997 0 0 -- --
1963 1 24 07 -18.2 118.0 997 0 0 -- --
1963 1 24 10 -18.3 117.5 997 0 0 -- --
1963 1 24 16 -18.6 116.5 996 0 0 -- --
1963 1 24 19 -18.7 116.0 996 0 0 -- --
1963 1 24 22 -18.8 115.5 995 0 0 -- --
1963 1 25 01 -18.9 115.0 995 0 0 -- --
1963 1 25 04 -19.2 114.6 995 0 0 -- --
1963 1 25 07 -19.5 114.2 994 0 0 -- --
1963 1 25 10 -19.9 113.8 994 0 0 -- --
1963 1 25 16 -20.7 113.0 994 0 0 -- --
1963 1 25 19 -21.1 112.6 993 0 0 -- --
1963 1 25 22 -21.5 112.3 993 0 0 -- --
1963 1 26 01 -21.9 112.0 993 0 0 -- --
1963 1 26 04 -22.0 111.9 992 0 0 -- --
1963 1 26 07 -22.2 111.8 992 0 0 -- --
1963 1 26 10 -22.3 111.7 992 0 0 -- --
1963 1 26 13 -22.5 111.7 987 0 0 -- --
1963 1 26 16 -22.6 111.4 991 0 0 -- --
1963 1 26 19 -22.7 111.3 991 0 0 -- --
1963 1 26 22 -22.8 111.1 991 0 0 -- --
1963 1 27 01 -22.9 111.0 990 0 0 -- --
1963 1 27 04 -23.1 111.1 991 0 0 -- --
1963 1 27 07 -23.4 111.3 992 0 0 -- --
1963 1 27 10 -23.6 111.4 993 0 0 -- --
1963 1 27 16 -24.1 111.7 994 0 0 -- --
1963 1 27 19 -24.4 111.8 995 0 0 -- --
1963 1 27 22 -24.7 111.9 996 0 0 -- --
1963 1 28 01 -24.9 112.0 997 0 0 -- --
1963 1 28 07 -25.9 112.0 997 0 0 -- --
1963 1 28 10 -26.4 112.0 997 0 0 -- --
1963 1 28 19 -27.9 112.0 997 0 0 -- --
1963 1 28 22 -28.4 112.0 997 0 0 -- --
1963 1 29 04 -28.9 112.0 997 0 0 -- --
1963 1 29 07 -28.9 112.0 998 0 0 -- --
1963 1 29 10 -28.9 112.0 999 0 0 -- --
1963 1 29 16 -28.9 112.0 1000 0 0 -- --
1963 1 29 19 -28.9 112.0 1001 0 0 -- --
1963 1 29 22 -28.9 112.0 1002 0 0 -- --
1963 1 30 01 -28.9 112.0 1003 0 0 -- --
< Cyclone 196310 1963 Season Cyclone 196312 >

Help